createdAt,value
2019-05-13T00:00:18.636Z,2.30
2019-05-13T00:03:03.723Z,2.40
2019-05-13T00:05:47.997Z,2.70
2019-05-13T00:08:33.816Z,2.37
2019-05-13T00:11:18.581Z,2.30
2019-05-13T00:14:04.408Z,2.37
2019-05-13T00:16:49.339Z,2.50
2019-05-13T00:19:34.696Z,2.63
2019-05-13T00:22:20.568Z,2.80
2019-05-13T00:24:54.234Z,2.10
2019-05-13T00:27:50.799Z,2.17
2019-05-13T00:30:36.382Z,2.30
2019-05-13T00:33:21.167Z,2.60
2019-05-13T00:36:05.784Z,2.40
2019-05-13T00:38:50.533Z,2.53
2019-05-13T00:41:34.063Z,2.40
2019-05-13T00:47:43.640Z,2.70
2019-05-13T00:50:28.436Z,2.20
2019-05-13T00:53:13.380Z,1.90
2019-05-13T00:55:58.982Z,2.10
2019-05-13T00:58:43.694Z,2.20
2019-05-13T01:01:28.183Z,2.40
2019-05-13T01:04:14.164Z,2.07
2019-05-13T01:06:57.862Z,2.40
2019-05-13T01:09:44.189Z,2.50
2019-05-13T01:12:27.605Z,2.87
2019-05-13T01:15:13.535Z,2.23
2019-05-13T01:17:58.734Z,2.30
2019-05-13T01:20:43.741Z,2.77
2019-05-13T01:23:29.775Z,2.80
2019-05-13T01:26:14.235Z,3.03
2019-05-13T01:28:58.877Z,2.67
2019-05-13T01:31:43.478Z,2.40
2019-05-13T01:34:27.602Z,2.40
2019-05-13T01:37:13.173Z,2.83
2019-05-13T01:39:57.641Z,2.50
2019-05-13T01:42:44.199Z,2.70
2019-05-13T01:45:28.470Z,2.50
2019-05-13T01:48:14.090Z,2.43
2019-05-13T01:50:58.819Z,2.50
2019-05-13T01:53:44.103Z,2.70
2019-05-13T01:56:28.588Z,2.27
2019-05-13T01:59:15.022Z,2.73
2019-05-13T02:01:57.863Z,2.90
2019-05-13T02:04:43.905Z,2.70
2019-05-13T02:07:28.867Z,2.50
2019-05-13T02:10:14.510Z,2.10
2019-05-13T02:12:59.733Z,2.03
2019-05-13T02:15:45.215Z,2.77
2019-05-13T02:18:29.647Z,2.53
2019-05-13T02:21:14.518Z,2.13
2019-05-13T02:23:59.611Z,2.70
2019-05-13T02:26:44.368Z,2.50
2019-05-13T02:29:28.108Z,2.70
2019-05-13T02:32:13.751Z,2.70
2019-05-13T02:35:02.695Z,2.83
2019-05-13T02:37:45.022Z,2.50
2019-05-13T02:40:32.455Z,2.50
2019-05-13T02:43:15.957Z,2.43
2019-05-13T02:46:03.765Z,2.43
2019-05-13T02:48:52.840Z,2.30
2019-05-13T02:51:48.410Z,2.63
2019-05-13T02:54:34.044Z,2.50
2019-05-13T02:57:19.063Z,2.53
2019-05-13T03:00:07.046Z,2.87
2019-05-13T03:02:52.446Z,2.30
2019-05-13T03:05:36.902Z,2.70
2019-05-13T03:08:38.060Z,2.40
2019-05-13T03:11:07.545Z,2.40
2019-05-13T03:13:53.153Z,2.37
2019-05-13T03:19:43.718Z,3.00
2019-05-13T03:22:27.841Z,2.60
2019-05-13T03:25:13.205Z,2.35
2019-05-13T03:27:57.686Z,2.33
2019-05-13T03:30:46.160Z,2.30
2019-05-13T03:33:35.934Z,2.70
2019-05-13T03:36:17.911Z,1.93
2019-05-13T03:39:10.947Z,2.50
2019-05-13T03:42:03.691Z,2.57
2019-05-13T03:45:16.092Z,2.57
2019-05-13T03:48:04.594Z,2.10
2019-05-13T03:50:49.277Z,2.17
2019-05-13T03:53:33.733Z,2.40
2019-05-13T03:56:18.133Z,2.40
2019-05-13T03:59:02.805Z,2.10
2019-05-13T04:01:35.299Z,2.50
2019-05-13T04:04:07.664Z,2.05
2019-05-13T04:09:58.687Z,2.90
2019-05-13T04:12:44.257Z,2.70
2019-05-13T04:15:31.996Z,2.63
2019-05-13T04:18:16.710Z,2.70
2019-05-13T04:21:02.851Z,2.50
2019-05-13T04:23:45.696Z,2.87
2019-05-13T04:26:32.359Z,2.58
2019-05-13T04:29:16.097Z,2.80
2019-05-13T04:32:02.208Z,2.47
2019-05-13T04:34:46.317Z,2.63
2019-05-13T04:37:32.869Z,2.73
2019-05-13T04:40:17.149Z,2.10
2019-05-13T04:43:02.899Z,2.10
2019-05-13T04:45:47.995Z,2.30
2019-05-13T04:48:33.879Z,2.23
2019-05-13T04:51:17.791Z,2.20
2019-05-13T04:54:03.238Z,2.20
2019-05-13T04:56:47.524Z,2.00
2019-05-13T04:59:34.022Z,2.37
2019-05-13T05:02:49.498Z,2.77
2019-05-13T05:06:03.192Z,2.37
2019-05-13T05:09:07.128Z,2.23
2019-05-13T05:12:12.436Z,2.20
2019-05-13T05:18:48.955Z,2.20
2019-05-13T05:22:03.094Z,2.20
2019-05-13T05:25:07.242Z,2.00
2019-05-13T05:31:14.682Z,2.47
2019-05-13T05:34:21.886Z,2.33
2019-05-13T05:40:12.325Z,2.10
2019-05-13T05:42:56.632Z,2.20
2019-05-13T05:45:41.409Z,2.52
2019-05-13T05:48:25.673Z,2.47
2019-05-13T05:51:13.036Z,2.77
2019-05-13T05:53:55.848Z,2.47
2019-05-13T05:56:41.505Z,2.40
2019-05-13T05:59:26.350Z,2.27
2019-05-13T06:02:12.323Z,1.90
2019-05-13T06:04:57.838Z,2.50
2019-05-13T06:07:42.332Z,2.20
2019-05-13T06:10:26.659Z,2.70
2019-05-13T06:13:12.189Z,2.57
2019-05-13T06:15:56.390Z,1.87
2019-05-13T06:18:41.527Z,2.10
2019-05-13T06:21:26.536Z,2.07
2019-05-13T06:24:14.519Z,2.10
2019-05-13T06:26:58.507Z,1.87
2019-05-13T06:29:43.917Z,2.10
2019-05-13T06:32:28.370Z,1.93
2019-05-13T06:35:14.201Z,2.10
2019-05-13T06:38:01.284Z,2.00
2019-05-13T06:40:58.135Z,1.60
2019-05-13T06:43:31.452Z,2.27
2019-05-13T06:46:16.196Z,2.00
2019-05-13T06:49:02.967Z,2.00
2019-05-13T06:51:47.541Z,1.80
2019-05-13T06:54:33.141Z,1.80
2019-05-13T06:57:17.979Z,2.17
2019-05-13T07:00:02.043Z,1.97
2019-05-13T07:02:47.751Z,2.60
2019-05-13T07:05:32.582Z,2.80
2019-05-13T07:08:16.803Z,1.73
2019-05-13T07:11:17.263Z,1.90
2019-05-13T07:13:55.144Z,2.07
2019-05-13T07:16:38.967Z,1.87
2019-05-13T07:19:23.880Z,1.73
2019-05-13T07:22:08.304Z,1.83
2019-05-13T07:24:52.612Z,1.73
2019-05-13T07:27:37.295Z,2.00
2019-05-13T07:33:33.956Z,2.40
2019-05-13T07:36:06.344Z,1.80
2019-05-13T07:38:41.572Z,1.80
2019-05-13T07:41:39.726Z,1.63
2019-05-13T07:44:23.837Z,1.67
2019-05-13T07:47:08.268Z,1.73
2019-05-13T07:49:52.750Z,1.40
2019-05-13T07:52:25.361Z,1.20
2019-05-13T07:55:16.401Z,1.30
2019-05-13T07:58:02.062Z,1.40
2019-05-13T08:00:45.890Z,1.53
2019-05-13T08:03:31.742Z,1.20
2019-05-13T08:06:15.516Z,1.70
2019-05-13T08:09:01.680Z,1.30
2019-05-13T08:12:02.414Z,1.47
2019-05-13T08:14:33.530Z,1.20
2019-05-13T08:17:18.356Z,1.30
2019-05-13T08:20:03.115Z,1.43
2019-05-13T08:22:48.427Z,1.70
2019-05-13T08:25:33.009Z,1.30
2019-05-13T08:28:17.476Z,1.20
2019-05-13T08:31:02.236Z,1.82
2019-05-13T08:33:45.946Z,1.10
2019-05-13T08:36:29.642Z,1.50
2019-05-13T08:39:13.185Z,1.33
2019-05-13T08:42:11.698Z,1.30
2019-05-13T08:44:43.928Z,1.10
2019-05-13T08:47:28.282Z,1.15
2019-05-13T08:50:12.727Z,1.33
2019-05-13T08:52:56.674Z,1.20
2019-05-13T08:55:42.928Z,0.95
2019-05-13T08:58:28.080Z,1.17
2019-05-13T09:01:12.588Z,1.43
2019-05-13T09:03:56.731Z,1.03
2019-05-13T09:06:41.883Z,1.07
2019-05-13T09:09:26.270Z,1.12
2019-05-13T09:12:28.142Z,0.93
2019-05-13T09:15:12.018Z,1.30
2019-05-13T09:17:56.088Z,1.10
2019-05-13T09:20:42.349Z,1.40
2019-05-13T09:23:14.884Z,1.47
2019-05-13T09:25:59.181Z,1.52
2019-05-13T09:28:43.337Z,1.60
2019-05-13T09:31:27.687Z,1.53
2019-05-13T09:34:12.327Z,1.60
2019-05-13T09:36:58.084Z,1.57
2019-05-13T09:39:42.334Z,1.80
2019-05-13T09:42:26.020Z,1.50
2019-05-13T09:48:01.634Z,1.30
2019-05-13T09:50:46.438Z,1.30
2019-05-13T09:53:32.517Z,1.73
2019-05-13T09:56:17.520Z,1.00
2019-05-13T09:59:02.071Z,1.20
2019-05-13T10:01:45.758Z,1.00
2019-05-13T10:04:31.748Z,1.30
2019-05-13T10:07:15.620Z,1.30
2019-05-13T10:10:01.636Z,0.87
2019-05-13T10:15:28.150Z,1.70
2019-05-13T10:18:12.922Z,1.23
2019-05-13T10:20:58.720Z,1.37
2019-05-13T10:23:44.111Z,1.17
2019-05-13T10:26:27.990Z,1.40
2019-05-13T10:29:12.589Z,1.10
2019-05-13T10:31:56.885Z,1.12
2019-05-13T10:34:42.774Z,1.57
2019-05-13T10:37:28.215Z,1.10
2019-05-13T10:40:13.367Z,1.50
2019-05-13T10:43:01.358Z,1.10
2019-05-13T10:45:45.572Z,1.30
2019-05-13T10:48:30.384Z,1.23
2019-05-13T10:51:15.391Z,1.27
2019-05-13T10:54:00.908Z,1.20
2019-05-13T10:56:45.512Z,1.60
2019-05-13T10:59:30.441Z,1.40
2019-05-13T11:02:03.060Z,1.20
2019-05-13T11:04:35.978Z,1.10
2019-05-13T11:07:22.495Z,1.77
2019-05-13T11:09:55.810Z,1.10
2019-05-13T11:12:41.833Z,1.10
2019-05-13T11:15:26.092Z,1.30
2019-05-13T11:18:14.247Z,1.60
2019-05-13T11:20:56.616Z,1.27
2019-05-13T11:23:42.803Z,1.35
2019-05-13T11:26:26.846Z,1.20
2019-05-13T11:29:12.113Z,1.40
2019-05-13T11:31:56.705Z,1.60
2019-05-13T11:34:42.153Z,1.40
2019-05-13T11:37:27.611Z,1.40
2019-05-13T11:40:13.535Z,1.27
2019-05-13T11:42:47.492Z,1.10
2019-05-13T11:45:32.237Z,1.20
2019-05-13T11:48:17.321Z,1.43
2019-05-13T11:51:04.024Z,1.30
2019-05-13T11:53:46.958Z,1.50
2019-05-13T11:56:33.747Z,1.30
2019-05-13T11:59:18.547Z,1.37
2019-05-13T12:02:05.591Z,1.67
2019-05-13T12:04:52.534Z,1.30
2019-05-13T12:07:35.634Z,1.37
2019-05-13T12:10:22.814Z,1.47
2019-05-13T12:13:07.226Z,1.30
2019-05-13T12:15:54.341Z,1.77
2019-05-13T12:18:43.540Z,1.70
2019-05-13T12:21:23.514Z,1.93
2019-05-13T12:24:11.038Z,1.50
2019-05-13T12:26:54.742Z,1.47
2019-05-13T12:29:38.618Z,1.60
2019-05-13T12:32:24.954Z,1.57
2019-05-13T12:35:13.255Z,1.40
2019-05-13T12:37:55.253Z,1.50
2019-05-13T12:40:42.909Z,1.50
2019-05-13T12:43:25.435Z,1.20
2019-05-13T12:46:12.308Z,1.37
2019-05-13T12:48:54.720Z,1.30
2019-05-13T12:51:38.582Z,1.40
2019-05-13T12:54:23.643Z,1.47
2019-05-13T12:57:13.203Z,1.27
2019-05-13T12:59:56.380Z,1.20
2019-05-13T13:02:48.682Z,1.30
2019-05-13T13:05:33.111Z,1.30
2019-05-13T13:08:24.684Z,1.30
2019-05-13T13:11:00.940Z,1.30
2019-05-13T13:13:58.889Z,1.17
2019-05-13T13:16:34.565Z,1.30
2019-05-13T13:19:18.861Z,1.17
2019-05-13T13:22:07.673Z,1.30
2019-05-13T13:24:52.970Z,1.30
2019-05-13T13:28:03.976Z,1.27
2019-05-13T13:30:23.460Z,1.33
2019-05-13T13:33:08.629Z,1.20
2019-05-13T13:35:58.904Z,1.20
2019-05-13T13:38:46.819Z,1.00
2019-05-13T13:41:32.752Z,1.10
2019-05-13T13:44:16.999Z,1.00
2019-05-13T13:47:01.402Z,1.17
2019-05-13T13:49:46.156Z,0.97
2019-05-13T13:52:33.548Z,1.10
2019-05-13T13:55:16.700Z,1.00
2019-05-13T13:58:02.302Z,1.10
2019-05-13T14:01:01.777Z,1.00
2019-05-13T14:03:35.889Z,1.00
2019-05-13T14:07:20.430Z,1.10
2019-05-13T14:09:07.053Z,1.13
2019-05-13T14:11:52.290Z,1.03
2019-05-13T14:14:36.404Z,1.03
2019-05-13T14:17:22.056Z,1.43
2019-05-13T14:20:06.488Z,1.30
2019-05-13T14:22:57.263Z,0.90
2019-05-13T14:25:26.735Z,1.30
2019-05-13T14:28:11.031Z,1.13
2019-05-13T14:30:56.264Z,0.97
2019-05-13T14:33:42.452Z,1.50
2019-05-13T14:36:26.351Z,1.45
2019-05-13T14:39:12.204Z,1.27
2019-05-13T14:41:56.841Z,1.17
2019-05-13T14:44:41.272Z,1.27
2019-05-13T14:47:26.305Z,1.83
2019-05-13T14:50:12.117Z,1.27
2019-05-13T14:52:56.559Z,1.90
2019-05-13T14:55:41.938Z,1.20
2019-05-13T14:58:26.640Z,1.40
2019-05-13T15:01:19.869Z,1.50
2019-05-13T15:04:12.468Z,1.87
2019-05-13T15:06:56.721Z,1.50
2019-05-13T15:09:42.126Z,1.70
2019-05-13T15:12:27.200Z,1.27
2019-05-13T15:15:12.743Z,1.53
2019-05-13T15:18:01.484Z,1.57
2019-05-13T15:20:53.623Z,1.60
2019-05-13T15:23:38.578Z,1.20
2019-05-13T15:26:23.209Z,1.50
2019-05-13T15:29:07.330Z,1.30
2019-05-13T15:31:51.548Z,1.40
2019-05-13T15:34:35.843Z,1.50
2019-05-13T15:37:21.545Z,1.70
2019-05-13T15:40:06.552Z,1.20
2019-05-13T15:42:52.425Z,1.40
2019-05-13T15:45:39.450Z,1.30
2019-05-13T15:48:23.725Z,1.10
2019-05-13T15:51:08.406Z,1.40
2019-05-13T15:53:52.702Z,1.75
2019-05-13T15:56:36.987Z,1.70
2019-05-13T15:59:21.574Z,1.57
2019-05-13T16:02:05.833Z,1.63
2019-05-13T16:04:57.778Z,1.50
2019-05-13T16:07:35.889Z,1.53
2019-05-13T16:13:51.764Z,1.30
2019-05-13T16:16:47.531Z,1.55
2019-05-13T16:19:32.771Z,1.47
2019-05-13T16:22:17.349Z,1.30
2019-05-13T16:25:01.680Z,1.77
2019-05-13T16:27:45.973Z,1.33
2019-05-13T16:30:32.062Z,1.70
2019-05-13T16:33:17.330Z,1.00
2019-05-13T16:36:02.916Z,1.57
2019-05-13T16:38:47.170Z,1.43
2019-05-13T16:41:31.850Z,1.40
2019-05-13T16:44:22.430Z,1.50
2019-05-13T16:47:18.289Z,1.20
2019-05-13T16:50:02.896Z,1.30
2019-05-13T16:52:47.388Z,1.30
2019-05-13T16:55:33.159Z,1.30
2019-05-13T16:58:17.665Z,1.40
2019-05-13T17:01:02.650Z,1.50
2019-05-13T17:03:51.307Z,1.30
2019-05-13T17:06:35.242Z,1.43
2019-05-13T17:09:19.337Z,1.33
2019-05-13T17:12:03.486Z,1.23
2019-05-13T17:14:49.068Z,1.50
2019-05-13T17:17:35.253Z,1.40
2019-05-13T17:20:21.514Z,1.63
2019-05-13T17:23:05.889Z,1.50
2019-05-13T17:25:52.085Z,1.57
2019-05-13T17:28:37.711Z,1.80
2019-05-13T17:31:22.293Z,1.67
2019-05-13T17:34:07.229Z,1.50
2019-05-13T17:36:52.071Z,1.53
2019-05-13T17:39:37.315Z,1.23
2019-05-13T17:42:21.555Z,1.67
2019-05-13T17:45:07.520Z,1.95
2019-05-13T17:47:52.391Z,1.47
2019-05-13T17:50:38.820Z,1.80
2019-05-13T17:53:25.427Z,1.60
2019-05-13T17:56:11.192Z,1.60
2019-05-13T17:58:55.828Z,1.37
2019-05-13T18:01:41.236Z,1.80
2019-05-13T18:04:25.809Z,1.60
2019-05-13T18:07:12.245Z,1.80
2019-05-13T18:12:58.981Z,1.70
2019-05-13T18:15:43.006Z,1.60
2019-05-13T18:18:39.143Z,2.17
2019-05-13T18:21:13.025Z,2.00
2019-05-13T18:24:01.541Z,1.80
2019-05-13T18:27:01.152Z,1.70
2019-05-13T18:29:44.623Z,2.10
2019-05-13T18:32:29.112Z,1.60
2019-05-13T18:35:13.006Z,1.93
2019-05-13T18:37:57.472Z,1.50
2019-05-13T18:40:42.368Z,1.85
2019-05-13T18:43:27.223Z,1.60
2019-05-13T18:48:59.395Z,1.60
2019-05-13T18:51:44.806Z,1.67
2019-05-13T18:54:31.380Z,1.90
2019-05-13T18:57:14.840Z,2.40
2019-05-13T19:00:01.814Z,1.70
2019-05-13T19:02:45.267Z,1.57
2019-05-13T19:05:31.752Z,1.77
2019-05-13T19:08:16.465Z,1.67
2019-05-13T19:11:01.291Z,1.50
2019-05-13T19:13:46.144Z,2.33
2019-05-13T19:16:31.893Z,2.23
2019-05-13T19:19:19.717Z,1.80
2019-05-13T19:22:04.094Z,1.80
2019-05-13T19:24:47.969Z,1.90
2019-05-13T19:27:37.025Z,1.80
2019-05-13T19:30:21.344Z,2.00
2019-05-13T19:33:06.977Z,1.97
2019-05-13T19:35:51.814Z,1.87
2019-05-13T19:38:37.404Z,2.23
2019-05-13T19:41:22.262Z,2.13
2019-05-13T19:44:08.532Z,2.60
2019-05-13T19:46:52.753Z,2.22
2019-05-13T19:49:37.457Z,1.97
2019-05-13T19:52:21.643Z,2.17
2019-05-13T19:55:06.877Z,2.17
2019-05-13T19:57:51.695Z,2.30
2019-05-13T20:03:42.604Z,2.10
2019-05-13T20:06:26.939Z,2.30
2019-05-13T20:09:12.119Z,2.40
2019-05-13T20:11:56.618Z,2.15
2019-05-13T20:14:29.785Z,2.20
2019-05-13T20:17:14.582Z,1.87
2019-05-13T20:20:02.105Z,2.20
2019-05-13T20:22:56.733Z,2.40
2019-05-13T20:25:41.846Z,2.10
2019-05-13T20:28:26.130Z,2.20
2019-05-13T20:31:13.737Z,2.25
2019-05-13T20:34:01.721Z,2.05
2019-05-13T20:36:56.967Z,2.17
2019-05-13T20:39:42.463Z,2.10
2019-05-13T20:42:26.977Z,2.10
2019-05-13T20:45:11.609Z,2.00
2019-05-13T20:47:55.977Z,2.40
2019-05-13T20:50:41.341Z,2.20
2019-05-13T20:53:25.367Z,2.00
2019-05-13T20:56:11.000Z,2.00
2019-05-13T20:58:55.511Z,1.90
2019-05-13T21:01:41.736Z,2.07
2019-05-13T21:04:27.910Z,2.00
2019-05-13T21:07:19.054Z,2.00
2019-05-13T21:10:01.580Z,2.20
2019-05-13T21:15:38.072Z,2.07
2019-05-13T21:18:22.936Z,1.93
2019-05-13T21:21:08.315Z,2.10
2019-05-13T21:23:53.331Z,2.17
2019-05-13T21:26:41.784Z,2.17
2019-05-13T21:29:23.792Z,2.30
2019-05-13T21:32:07.947Z,2.20
2019-05-13T21:34:52.089Z,1.90
2019-05-13T21:37:36.449Z,2.00
2019-05-13T21:40:21.728Z,2.13
2019-05-13T21:43:06.078Z,2.22
2019-05-13T21:45:52.102Z,2.60
2019-05-13T21:48:36.122Z,2.57
2019-05-13T21:51:22.320Z,2.20
2019-05-13T21:54:07.044Z,2.50
2019-05-13T21:56:53.300Z,2.70
2019-05-13T21:59:37.357Z,2.37
2019-05-13T22:02:23.432Z,2.90
2019-05-13T22:05:08.783Z,3.20
2019-05-13T22:07:52.717Z,2.50
2019-05-13T22:10:36.861Z,2.73
2019-05-13T22:13:21.677Z,3.03
2019-05-13T22:16:05.814Z,2.50
2019-05-13T22:18:52.429Z,2.98
2019-05-13T22:21:24.608Z,3.00
2019-05-13T22:24:08.516Z,2.97
2019-05-13T22:26:52.130Z,2.70
2019-05-13T22:29:35.763Z,2.60
2019-05-13T22:32:21.802Z,3.17
2019-05-13T22:35:06.251Z,2.87
2019-05-13T22:37:51.230Z,2.83
2019-05-13T22:40:35.496Z,3.30
2019-05-13T22:43:21.202Z,3.00
2019-05-13T22:46:05.941Z,3.10
2019-05-13T22:48:38.246Z,3.53
2019-05-13T22:51:22.441Z,3.50
2019-05-13T22:54:08.231Z,3.67
2019-05-13T22:56:52.389Z,2.87
2019-05-13T22:59:36.771Z,3.80
2019-05-13T23:02:21.973Z,3.47
2019-05-13T23:05:06.337Z,3.22
2019-05-13T23:07:51.494Z,3.50
2019-05-13T23:10:36.123Z,3.40
2019-05-13T23:13:20.107Z,3.93
2019-05-13T23:16:04.902Z,3.13
2019-05-13T23:18:51.175Z,3.35
2019-05-13T23:21:36.100Z,3.60
2019-05-13T23:24:21.855Z,2.97
2019-05-13T23:27:06.578Z,3.10
2019-05-13T23:29:51.704Z,3.40
2019-05-13T23:32:35.569Z,3.33
2019-05-13T23:38:31.893Z,3.10
2019-05-13T23:41:18.295Z,3.12
2019-05-13T23:44:02.361Z,3.13
2019-05-13T23:46:35.254Z,3.40
2019-05-13T23:49:21.079Z,3.40
2019-05-13T23:52:05.184Z,4.23
2019-05-13T23:54:51.643Z,3.30
2019-05-13T23:57:36.351Z,3.27
